createdAt,value
2023-01-29T00:00:20.946Z,3.27
2023-01-29T00:02:47.858Z,3.29
2023-01-29T00:05:27.034Z,3.18
2023-01-29T00:07:56.208Z,3.18
2023-01-29T00:10:24.211Z,3.21
2023-01-29T00:12:51.806Z,3.16
2023-01-29T00:15:18.680Z,3.27
2023-01-29T00:17:45.193Z,3.30
2023-01-29T00:20:12.152Z,3.30
2023-01-29T00:22:38.666Z,3.17
2023-01-29T00:25:05.627Z,3.29
2023-01-29T00:27:32.156Z,3.25
2023-01-29T00:30:13.127Z,3.33
2023-01-29T00:32:40.777Z,3.27
2023-01-29T00:35:08.579Z,3.36
2023-01-29T00:37:35.701Z,3.42
2023-01-29T00:40:02.232Z,3.34
2023-01-29T00:42:47.252Z,3.38
2023-01-29T00:45:13.857Z,3.44
2023-01-29T00:47:40.495Z,3.37
2023-01-29T00:50:10.848Z,3.46
2023-01-29T00:52:38.521Z,3.32
2023-01-29T00:55:06.914Z,3.32
2023-01-29T00:57:35.168Z,3.28
2023-01-29T01:00:02.462Z,3.17
2023-01-29T01:02:47.748Z,3.18
2023-01-29T01:05:19.735Z,3.21
2023-01-29T01:07:52.164Z,3.15
2023-01-29T01:10:28.805Z,3.08
2023-01-29T01:12:56.907Z,3.04
2023-01-29T01:15:25.619Z,3.02
2023-01-29T01:17:57.447Z,3.06
2023-01-29T01:20:24.908Z,3.08
2023-01-29T01:22:53.184Z,3.16
2023-01-29T01:25:20.057Z,3.08
2023-01-29T01:27:46.889Z,3.17
2023-01-29T01:30:16.552Z,3.22
2023-01-29T01:32:43.359Z,3.23
2023-01-29T01:35:11.172Z,3.23
2023-01-29T01:37:38.749Z,3.30
2023-01-29T01:40:12.809Z,3.27
2023-01-29T01:42:40.488Z,3.22
2023-01-29T01:45:17.685Z,3.42
2023-01-29T01:47:48.941Z,3.44
2023-01-29T01:50:21.980Z,3.40
2023-01-29T01:52:54.790Z,3.45
2023-01-29T01:55:26.379Z,3.29
2023-01-29T01:57:57.566Z,3.31
2023-01-29T02:00:26.096Z,3.34
2023-01-29T02:03:12.380Z,3.30
2023-01-29T02:05:58.599Z,3.27
2023-01-29T02:08:54.634Z,3.35
2023-01-29T02:11:21.169Z,3.40
2023-01-29T02:13:53.654Z,3.35
2023-01-29T02:16:21.999Z,3.11
2023-01-29T02:18:49.618Z,3.16
2023-01-29T02:21:51.536Z,3.11
2023-01-29T02:24:49.037Z,3.24
2023-01-29T02:27:20.877Z,3.07
2023-01-29T02:29:57.255Z,3.14
2023-01-29T02:32:23.721Z,2.94
2023-01-29T02:35:20.622Z,2.84
2023-01-29T02:38:02.220Z,3.04
2023-01-29T02:41:02.244Z,2.92
2023-01-29T02:43:43.789Z,3.05
2023-01-29T02:46:13.041Z,3.02
2023-01-29T02:49:07.484Z,3.03
2023-01-29T02:51:36.832Z,3.04
2023-01-29T02:54:22.159Z,3.07
2023-01-29T02:56:55.843Z,3.14
2023-01-29T02:59:41.110Z,3.12
2023-01-29T03:02:24.164Z,3.05
2023-01-29T03:04:58.490Z,3.05
2023-01-29T03:07:45.065Z,3.01
2023-01-29T03:10:17.741Z,2.93
2023-01-29T03:12:49.489Z,2.90
2023-01-29T03:15:28.538Z,2.78
2023-01-29T03:18:03.919Z,2.94
2023-01-29T03:20:36.761Z,3.00
2023-01-29T03:23:11.509Z,3.09
2023-01-29T03:26:00.111Z,2.96
2023-01-29T03:28:48.399Z,2.99
2023-01-29T03:31:36.176Z,2.99
2023-01-29T03:34:28.581Z,2.96
2023-01-29T03:37:00.105Z,2.87
2023-01-29T03:39:28.663Z,2.88
2023-01-29T03:42:02.665Z,2.83
2023-01-29T03:44:48.983Z,2.79
2023-01-29T03:47:20.757Z,2.76
2023-01-29T03:49:54.733Z,2.84
2023-01-29T03:52:39.179Z,2.83
2023-01-29T03:55:24.957Z,2.81
2023-01-29T03:58:15.919Z,2.70
2023-01-29T04:00:52.617Z,2.68
2023-01-29T04:03:19.102Z,2.72
2023-01-29T04:06:13.806Z,2.65
2023-01-29T04:09:05.987Z,2.71
2023-01-29T04:11:36.211Z,2.67
2023-01-29T04:14:03.239Z,2.71
2023-01-29T04:16:35.664Z,2.71
2023-01-29T04:19:02.443Z,2.75
2023-01-29T04:21:31.909Z,2.71
2023-01-29T04:23:58.507Z,2.89
2023-01-29T04:26:51.209Z,2.97
2023-01-29T04:29:38.554Z,2.92
2023-01-29T04:32:24.443Z,2.92
2023-01-29T04:34:51.760Z,2.96
2023-01-29T04:37:19.244Z,2.78
2023-01-29T04:40:22.712Z,2.88
2023-01-29T04:43:14.230Z,2.78
2023-01-29T04:46:17.668Z,2.76
2023-01-29T04:48:50.281Z,2.78
2023-01-29T04:51:33.094Z,2.73
2023-01-29T04:53:59.996Z,2.66
2023-01-29T04:56:42.171Z,2.71
2023-01-29T04:59:14.666Z,2.81
2023-01-29T05:01:41.468Z,2.80
2023-01-29T05:04:13.435Z,2.69
2023-01-29T05:06:41.545Z,2.73
2023-01-29T05:09:09.707Z,2.80
2023-01-29T05:11:37.797Z,2.75
2023-01-29T05:14:09.009Z,2.86
2023-01-29T05:16:44.693Z,2.90
2023-01-29T05:19:16.326Z,2.95
2023-01-29T05:21:46.167Z,2.88
2023-01-29T05:24:16.964Z,2.94
2023-01-29T05:27:04.412Z,3.01
2023-01-29T05:29:31.119Z,2.88
2023-01-29T05:31:57.766Z,2.76
2023-01-29T05:34:24.459Z,2.85
2023-01-29T05:36:51.163Z,2.95
2023-01-29T05:39:18.007Z,2.99
2023-01-29T05:41:44.604Z,3.09
2023-01-29T05:44:11.393Z,3.15
2023-01-29T05:46:38.612Z,3.09
2023-01-29T05:49:06.024Z,3.11
2023-01-29T05:51:32.779Z,3.11
2023-01-29T05:53:59.284Z,3.12
2023-01-29T05:56:25.859Z,3.02
2023-01-29T05:58:52.639Z,2.84
2023-01-29T06:01:22.594Z,2.78
2023-01-29T06:03:49.609Z,2.85
2023-01-29T06:06:16.645Z,2.89
2023-01-29T06:08:43.730Z,2.79
2023-01-29T06:11:13.112Z,2.80
2023-01-29T06:13:39.854Z,2.84
2023-01-29T06:16:10.395Z,2.85
2023-01-29T06:18:37.329Z,2.68
2023-01-29T06:21:05.836Z,2.90
2023-01-29T06:23:32.922Z,2.88
2023-01-29T06:26:19.844Z,2.83
2023-01-29T06:28:48.446Z,2.69
2023-01-29T06:31:33.097Z,2.77
2023-01-29T06:34:01.655Z,2.84
2023-01-29T06:36:28.261Z,2.84
2023-01-29T06:38:55.986Z,2.85
2023-01-29T06:41:25.606Z,2.84
2023-01-29T06:43:52.684Z,2.78
2023-01-29T06:46:19.344Z,2.88
2023-01-29T06:48:45.957Z,2.86
2023-01-29T06:51:12.552Z,2.98
2023-01-29T06:53:39.651Z,3.08
2023-01-29T06:56:06.980Z,3.11
2023-01-29T06:58:33.583Z,3.21
2023-01-29T07:01:17.374Z,3.24
2023-01-29T07:03:52.224Z,3.16
2023-01-29T07:06:19.586Z,3.16
2023-01-29T07:08:46.457Z,3.14
2023-01-29T07:11:13.264Z,3.20
2023-01-29T07:13:39.817Z,3.26
2023-01-29T07:16:07.587Z,3.28
2023-01-29T07:18:34.168Z,3.27
2023-01-29T07:21:05.387Z,3.34
2023-01-29T07:23:31.964Z,3.38
2023-01-29T07:26:04.631Z,3.41
2023-01-29T07:28:31.505Z,3.49
2023-01-29T07:30:59.023Z,3.30
2023-01-29T07:33:26.060Z,3.52
2023-01-29T07:35:53.249Z,3.66
2023-01-29T07:38:20.324Z,3.31
2023-01-29T07:40:47.137Z,3.52
2023-01-29T07:43:13.787Z,3.60
2023-01-29T07:45:40.786Z,3.63
2023-01-29T07:48:10.496Z,3.59
2023-01-29T07:50:37.132Z,3.68
2023-01-29T07:53:04.012Z,3.65
2023-01-29T07:55:31.297Z,3.68
2023-01-29T07:57:59.249Z,3.67
2023-01-29T08:00:25.892Z,3.68
2023-01-29T08:02:52.664Z,3.79
2023-01-29T08:05:19.562Z,3.74
2023-01-29T08:07:51.586Z,3.70
2023-01-29T08:10:24.363Z,3.63
2023-01-29T08:12:59.388Z,3.72
2023-01-29T08:15:26.351Z,3.70
2023-01-29T08:17:58.063Z,3.55
2023-01-29T08:20:25.135Z,3.51
2023-01-29T08:23:01.923Z,3.48
2023-01-29T08:25:29.450Z,3.42
2023-01-29T08:27:57.870Z,3.49
2023-01-29T08:30:26.378Z,3.59
2023-01-29T08:32:52.922Z,3.72
2023-01-29T08:35:19.859Z,3.95
2023-01-29T08:37:59.902Z,3.88
2023-01-29T08:40:34.203Z,3.89
2023-01-29T08:43:03.098Z,3.97
2023-01-29T08:45:34.324Z,4.09
2023-01-29T08:48:01.199Z,4.19
2023-01-29T08:50:30.060Z,4.28
2023-01-29T08:53:00.667Z,4.39
2023-01-29T08:55:28.350Z,4.46
2023-01-29T08:57:57.342Z,4.41
2023-01-29T09:00:24.063Z,4.73
2023-01-29T09:02:50.653Z,4.86
2023-01-29T09:05:17.747Z,4.81
2023-01-29T09:07:44.535Z,4.96
2023-01-29T09:10:12.250Z,5.08
2023-01-29T09:12:38.882Z,5.30
2023-01-29T09:15:05.768Z,5.42
2023-01-29T09:17:32.335Z,6.07
2023-01-29T09:19:59.041Z,6.22
2023-01-29T09:22:25.674Z,6.44
2023-01-29T09:24:52.259Z,6.54
2023-01-29T09:27:18.852Z,6.00
2023-01-29T09:29:45.458Z,5.99
2023-01-29T09:32:12.043Z,5.86
2023-01-29T09:34:38.610Z,5.78
2023-01-29T09:37:05.215Z,5.48
2023-01-29T09:39:31.738Z,5.30
2023-01-29T09:41:58.304Z,5.25
2023-01-29T09:44:34.113Z,5.16
2023-01-29T09:47:05.099Z,5.23
2023-01-29T09:49:37.967Z,5.24
2023-01-29T09:52:17.607Z,5.25
2023-01-29T09:54:52.915Z,5.19
2023-01-29T09:57:30.764Z,5.24
2023-01-29T09:59:57.340Z,5.18
2023-01-29T10:03:00.689Z,5.25
2023-01-29T10:05:39.330Z,5.21
2023-01-29T10:08:28.397Z,5.27
2023-01-29T10:11:10.392Z,5.11
2023-01-29T10:13:57.049Z,5.17
2023-01-29T10:16:47.077Z,5.09
2023-01-29T10:19:22.893Z,4.93
2023-01-29T10:22:17.554Z,5.10
2023-01-29T10:24:50.053Z,5.18
2023-01-29T10:27:18.628Z,5.21
2023-01-29T10:29:49.045Z,5.11
2023-01-29T10:32:23.637Z,4.92
2023-01-29T10:35:02.605Z,5.04
2023-01-29T10:37:41.782Z,5.17
2023-01-29T10:40:17.242Z,5.09
2023-01-29T10:42:52.972Z,4.98
2023-01-29T10:45:30.512Z,4.97
2023-01-29T10:48:24.345Z,4.93
2023-01-29T10:51:06.782Z,4.84
2023-01-29T10:53:57.901Z,4.86
2023-01-29T10:56:24.375Z,4.76
2023-01-29T10:58:58.989Z,4.75
2023-01-29T11:01:26.921Z,4.74
2023-01-29T11:04:00.932Z,4.71
2023-01-29T11:06:36.028Z,4.78
2023-01-29T11:09:20.363Z,4.84
2023-01-29T11:11:54.616Z,4.76
2023-01-29T11:14:29.966Z,4.90
2023-01-29T11:16:56.637Z,4.94
2023-01-29T11:19:36.673Z,4.94
2023-01-29T11:22:04.450Z,5.05
2023-01-29T11:24:31.117Z,5.19
2023-01-29T11:27:00.098Z,5.32
2023-01-29T11:29:32.105Z,5.32
2023-01-29T11:32:00.220Z,5.45
2023-01-29T11:34:32.733Z,5.47
2023-01-29T11:37:04.692Z,5.39
2023-01-29T11:39:32.491Z,5.34
2023-01-29T11:42:04.242Z,5.32
2023-01-29T11:44:40.115Z,5.31
2023-01-29T11:47:27.464Z,5.39
2023-01-29T11:49:56.734Z,5.47
2023-01-29T11:52:43.617Z,5.54
2023-01-29T11:55:23.744Z,5.57
2023-01-29T11:57:54.480Z,5.57
2023-01-29T12:00:21.222Z,5.49
2023-01-29T12:02:52.990Z,5.35
2023-01-29T12:05:22.851Z,5.31
2023-01-29T12:07:56.246Z,5.31
2023-01-29T12:10:36.639Z,5.33
2023-01-29T12:13:23.984Z,5.32
2023-01-29T12:16:10.969Z,5.39
2023-01-29T12:18:46.877Z,5.47
2023-01-29T12:21:32.257Z,5.48
2023-01-29T12:24:12.136Z,5.43
2023-01-29T12:26:48.168Z,5.23
2023-01-29T12:29:36.088Z,5.48
2023-01-29T12:32:44.305Z,5.38
2023-01-29T12:35:21.837Z,5.52
2023-01-29T12:38:08.623Z,5.56
2023-01-29T12:40:42.999Z,5.62
2023-01-29T12:43:31.717Z,5.51
2023-01-29T12:46:01.261Z,5.66
2023-01-29T12:48:34.325Z,5.70
2023-01-29T12:51:16.262Z,5.62
2023-01-29T12:53:55.199Z,5.47
2023-01-29T12:56:56.048Z,5.42
2023-01-29T12:59:36.396Z,5.38
2023-01-29T13:02:11.359Z,5.51
2023-01-29T13:04:51.625Z,5.51
2023-01-29T13:07:28.748Z,5.47
2023-01-29T13:10:00.002Z,5.50
2023-01-29T13:12:27.949Z,5.52
2023-01-29T13:14:59.050Z,5.55
2023-01-29T13:17:48.553Z,5.63
2023-01-29T13:20:24.323Z,5.56
2023-01-29T13:22:54.541Z,5.60
2023-01-29T13:25:21.722Z,5.60
2023-01-29T13:27:49.223Z,5.50
2023-01-29T13:30:28.289Z,5.43
2023-01-29T13:33:09.293Z,5.47
2023-01-29T13:35:46.351Z,5.39
2023-01-29T13:38:38.985Z,5.63
2023-01-29T13:41:08.783Z,5.74
2023-01-29T13:43:43.471Z,5.57
2023-01-29T13:46:18.436Z,5.50
2023-01-29T13:48:48.471Z,5.52
2023-01-29T13:51:20.249Z,5.31
2023-01-29T13:54:00.756Z,5.33
2023-01-29T13:56:33.078Z,5.17
2023-01-29T13:59:05.384Z,5.20
2023-01-29T14:01:47.167Z,5.26
2023-01-29T14:04:26.212Z,5.23
2023-01-29T14:06:57.452Z,5.23
2023-01-29T14:09:38.954Z,5.13
2023-01-29T14:12:25.541Z,5.19
2023-01-29T14:15:04.736Z,5.05
2023-01-29T14:17:31.820Z,5.13
2023-01-29T14:20:04.204Z,5.08
2023-01-29T14:22:33.814Z,5.11
2023-01-29T14:25:05.048Z,5.15
2023-01-29T14:27:32.960Z,5.02
2023-01-29T14:30:02.385Z,5.13
2023-01-29T14:32:29.884Z,5.10
2023-01-29T14:35:19.279Z,4.91
2023-01-29T14:37:49.182Z,4.89
2023-01-29T14:40:23.755Z,4.93
2023-01-29T14:42:55.455Z,4.89
2023-01-29T14:45:32.208Z,4.87
2023-01-29T14:48:01.585Z,4.83
2023-01-29T14:50:34.903Z,4.82
2023-01-29T14:53:24.519Z,4.79
2023-01-29T14:56:25.658Z,4.86
2023-01-29T14:58:57.277Z,4.82
2023-01-29T15:01:30.859Z,4.70
2023-01-29T15:04:06.554Z,4.73
2023-01-29T15:06:41.849Z,4.79
2023-01-29T15:09:17.535Z,4.77
2023-01-29T15:11:58.377Z,4.68
2023-01-29T15:14:31.916Z,4.64
2023-01-29T15:17:36.182Z,4.66
2023-01-29T15:20:22.699Z,4.68
2023-01-29T15:22:49.235Z,4.61
2023-01-29T15:25:19.241Z,4.57
2023-01-29T15:27:46.278Z,4.55
2023-01-29T15:30:22.744Z,4.53
2023-01-29T15:32:49.891Z,4.33
2023-01-29T15:35:37.661Z,4.13
2023-01-29T15:38:17.116Z,4.22
2023-01-29T15:41:14.064Z,4.18
2023-01-29T15:43:44.855Z,4.15
2023-01-29T15:46:24.918Z,4.10
2023-01-29T15:48:53.705Z,4.05
2023-01-29T15:51:22.776Z,4.10
2023-01-29T15:53:53.418Z,3.98
2023-01-29T15:56:53.357Z,3.88
2023-01-29T15:59:26.604Z,3.87
2023-01-29T16:01:54.102Z,3.82
2023-01-29T16:04:28.796Z,3.80
2023-01-29T16:06:56.416Z,3.67
2023-01-29T16:09:26.049Z,3.59
2023-01-29T16:11:54.389Z,3.69
2023-01-29T16:14:25.529Z,3.54
2023-01-29T16:16:52.545Z,3.63
2023-01-29T16:19:23.828Z,3.61
2023-01-29T16:22:00.880Z,3.59
2023-01-29T16:24:27.919Z,3.53
2023-01-29T16:27:02.127Z,3.54
2023-01-29T16:29:36.006Z,3.30
2023-01-29T16:32:03.666Z,3.55
2023-01-29T16:34:33.067Z,3.47
2023-01-29T16:37:02.830Z,3.59
2023-01-29T16:39:36.592Z,3.54
2023-01-29T16:42:21.198Z,3.55
2023-01-29T16:44:56.853Z,3.61
2023-01-29T16:47:31.491Z,3.64
2023-01-29T16:50:46.440Z,3.51
2023-01-29T16:53:23.320Z,3.57
2023-01-29T16:55:52.602Z,3.64
2023-01-29T16:58:28.406Z,3.60
2023-01-29T17:01:05.097Z,3.68
2023-01-29T17:03:33.803Z,3.67
2023-01-29T17:06:10.823Z,3.60
2023-01-29T17:08:38.151Z,3.53
2023-01-29T17:11:05.153Z,3.49
2023-01-29T17:13:31.815Z,3.46
2023-01-29T17:16:03.639Z,3.46
2023-01-29T17:18:30.757Z,3.39
2023-01-29T17:20:57.354Z,3.42
2023-01-29T17:23:24.000Z,3.37
2023-01-29T17:25:51.860Z,3.37
2023-01-29T17:28:18.724Z,3.46
2023-01-29T17:30:56.519Z,3.38
2023-01-29T17:33:31.872Z,3.37
2023-01-29T17:35:58.522Z,3.39
2023-01-29T17:38:26.720Z,3.36
2023-01-29T17:41:16.194Z,3.49
2023-01-29T17:43:44.202Z,3.59
2023-01-29T17:46:15.859Z,3.59
2023-01-29T17:48:42.664Z,3.55
2023-01-29T17:51:13.724Z,3.54
2023-01-29T17:53:46.088Z,3.52
2023-01-29T17:56:18.394Z,3.50
2023-01-29T17:58:45.297Z,3.51
2023-01-29T18:01:11.863Z,3.53
2023-01-29T18:03:38.685Z,3.53
2023-01-29T18:06:08.646Z,3.50
2023-01-29T18:08:38.216Z,3.58
2023-01-29T18:11:04.894Z,3.63
2023-01-29T18:13:31.922Z,3.61
2023-01-29T18:15:59.099Z,3.66
2023-01-29T18:18:25.716Z,3.62
2023-01-29T18:20:52.403Z,3.64
2023-01-29T18:23:19.505Z,3.63
2023-01-29T18:25:46.137Z,3.70
2023-01-29T18:28:17.312Z,3.66
2023-01-29T18:30:46.985Z,3.64
2023-01-29T18:33:14.178Z,3.65
2023-01-29T18:35:42.369Z,3.54
2023-01-29T18:38:08.911Z,3.58
2023-01-29T18:40:35.500Z,3.58
2023-01-29T18:43:03.030Z,3.64
2023-01-29T18:45:30.236Z,3.49
2023-01-29T18:47:57.543Z,3.56
2023-01-29T18:50:26.294Z,3.44
2023-01-29T18:52:53.552Z,3.56
2023-01-29T18:55:20.587Z,3.64
2023-01-29T18:58:27.272Z,3.59
2023-01-29T19:00:33.619Z,3.60
2023-01-29T19:03:00.821Z,3.53
2023-01-29T19:05:27.426Z,3.57
2023-01-29T19:07:54.121Z,3.61
2023-01-29T19:10:20.660Z,3.57
2023-01-29T19:12:47.747Z,3.56
2023-01-29T19:15:14.880Z,3.56
2023-01-29T19:17:41.638Z,3.59
2023-01-29T19:20:09.715Z,3.53
2023-01-29T19:22:36.378Z,3.47
2023-01-29T19:25:02.960Z,3.60
2023-01-29T19:27:30.626Z,3.62
2023-01-29T19:29:58.247Z,3.49
2023-01-29T19:32:25.379Z,3.50
2023-01-29T19:34:51.977Z,3.69
2023-01-29T19:37:18.497Z,3.78
2023-01-29T19:39:45.439Z,3.79
2023-01-29T19:42:12.030Z,3.76
2023-01-29T19:44:40.065Z,3.70
2023-01-29T19:47:06.741Z,3.74
2023-01-29T19:49:34.167Z,3.67
2023-01-29T19:52:01.474Z,3.64
2023-01-29T19:54:28.058Z,3.65
2023-01-29T19:56:55.075Z,3.63
2023-01-29T19:59:21.705Z,3.66
2023-01-29T20:01:48.381Z,3.69
2023-01-29T20:04:15.268Z,3.61
2023-01-29T20:06:41.811Z,3.59
2023-01-29T20:09:08.706Z,3.54
2023-01-29T20:11:35.269Z,3.58
2023-01-29T20:14:02.021Z,3.63
2023-01-29T20:16:28.592Z,3.67
2023-01-29T20:18:55.246Z,3.66
2023-01-29T20:21:42.863Z,3.73
2023-01-29T20:24:13.123Z,3.70
2023-01-29T20:26:39.772Z,3.71
2023-01-29T20:29:06.596Z,3.72
2023-01-29T20:31:33.434Z,3.68
2023-01-29T20:34:00.122Z,3.64
2023-01-29T20:36:26.687Z,3.63
2023-01-29T20:38:53.333Z,3.58
2023-01-29T20:41:19.937Z,3.59
2023-01-29T20:43:47.343Z,3.41
2023-01-29T20:46:14.233Z,3.56
2023-01-29T20:48:42.135Z,3.58
2023-01-29T20:51:10.351Z,3.57
2023-01-29T20:53:37.450Z,3.57
2023-01-29T20:56:04.859Z,3.56
2023-01-29T20:58:32.004Z,3.55
2023-01-29T21:00:58.676Z,3.51
2023-01-29T21:03:25.427Z,3.52
2023-01-29T21:05:52.376Z,3.44
2023-01-29T21:08:18.923Z,3.49
2023-01-29T21:10:45.798Z,3.48
2023-01-29T21:13:12.596Z,3.50
2023-01-29T21:15:39.221Z,3.53
2023-01-29T21:18:06.716Z,3.46
2023-01-29T21:20:33.256Z,3.53
2023-01-29T21:22:59.843Z,3.51
2023-01-29T21:25:26.381Z,3.51
2023-01-29T21:27:52.881Z,3.52
2023-01-29T21:30:19.949Z,3.46
2023-01-29T21:32:46.697Z,3.46
2023-01-29T21:35:13.351Z,3.45
2023-01-29T21:37:39.868Z,3.44
2023-01-29T21:40:07.462Z,3.45
2023-01-29T21:42:52.428Z,3.44
2023-01-29T21:45:19.637Z,3.45
2023-01-29T21:47:46.247Z,3.54
2023-01-29T21:50:13.211Z,3.56
2023-01-29T21:52:39.784Z,3.57
2023-01-29T21:55:06.785Z,3.52
2023-01-29T21:57:33.479Z,3.62
2023-01-29T22:00:00.143Z,3.62
2023-01-29T22:02:30.811Z,3.65
2023-01-29T22:05:16.465Z,3.60
2023-01-29T22:07:45.090Z,3.66
2023-01-29T22:10:12.401Z,3.72
2023-01-29T22:12:39.495Z,3.73
2023-01-29T22:15:07.246Z,3.72
2023-01-29T22:17:34.041Z,3.68
2023-01-29T22:20:00.760Z,3.69
2023-01-29T22:22:27.300Z,3.70
2023-01-29T22:24:55.123Z,3.74
2023-01-29T22:27:21.694Z,3.73
2023-01-29T22:29:48.242Z,3.74
2023-01-29T22:32:14.929Z,3.75
2023-01-29T22:34:41.533Z,3.74
2023-01-29T22:37:08.832Z,3.73
2023-01-29T22:39:35.343Z,3.75
2023-01-29T22:42:02.021Z,3.74
2023-01-29T22:44:28.595Z,3.76
2023-01-29T22:46:55.204Z,3.75
2023-01-29T22:49:23.087Z,3.74
2023-01-29T22:52:09.548Z,3.76
2023-01-29T22:54:37.997Z,3.76
2023-01-29T22:57:04.912Z,3.77
2023-01-29T22:59:32.057Z,3.83
2023-01-29T23:01:58.780Z,3.83
2023-01-29T23:04:25.397Z,3.80
2023-01-29T23:06:51.978Z,3.80
2023-01-29T23:09:18.565Z,3.80
2023-01-29T23:11:45.108Z,3.81
2023-01-29T23:14:11.682Z,3.80
2023-01-29T23:16:38.208Z,3.83
2023-01-29T23:19:04.860Z,3.83
2023-01-29T23:21:31.363Z,3.90
2023-01-29T23:24:01.285Z,3.87
2023-01-29T23:26:47.954Z,3.81
2023-01-29T23:29:14.807Z,3.79
2023-01-29T23:31:41.469Z,3.80
2023-01-29T23:34:08.086Z,3.84
2023-01-29T23:36:34.728Z,3.73
2023-01-29T23:39:01.256Z,3.79
2023-01-29T23:41:27.819Z,3.71
2023-01-29T23:43:54.387Z,3.77
2023-01-29T23:46:21.061Z,3.85
2023-01-29T23:48:47.712Z,3.81
2023-01-29T23:51:14.261Z,3.53
2023-01-29T23:53:41.135Z,3.67
2023-01-29T23:56:08.194Z,3.74
2023-01-29T23:58:35.046Z,3.66
